Latest Coastal Weather Observations for Horn Island

IDQ60701

Issued at 2:31 am EST Monday 3 August 2015 (issued every 10 minutes, with the page automatically refreshed every 10 minutes)

About coastal observations | Map of coastal stations | Coastal observations for QLD | Marine services | Other Formats
Station Details ID: 027058 Name: HORN ISLAND Lat: -10.58 Lon: 142.29 Height: 4.0 m
Data from the previous 72 hours. | See also: Recent months at Horn Island
Date/Time
EST
Temp

°C
Wind Pressure Rain
since 9am
mm
Weather Cloud Vis
km
Sea
Height
m
Swell
Dir
 
Speed
knots
Gust
knots
hPa Trend Height
m
Period
s
Dir
03/02:30am 22.6 SSE 7 9 1014.6 - 0.0 - - 10 - - - -
03/02:00am 22.8 SSE 10 14 1014.8 - 0.0 - - 10 - - - -
03/01:30am 23.0 SSE 10 15 1015.0 - 0.0 - - 10 - - - -
03/01:00am 23.1 SSE 9 13 1015.3 - 0.0 - - 10 - - - -
03/12:30am 23.3 SSE 10 15 1015.6 - 0.0 - - 10 - - - -
03/12:00am 23.4 SSE 9 12 1015.8 - 0.0 - - 10 - - - -
 
Date/Time
EST
Temp

°C
Wind Pressure Rain
since 9am
mm
Weather Cloud Vis
km
Sea
Height
m
Swell
Dir
 
Speed
knots
Gust
knots
hPa Trend Height
m
Period
s
Dir
02/11:30pm 23.4 SE 9 12 1016.1 - 0.0 - - 10 - - - -
02/11:00pm 23.5 SE 9 12 1016.1 - 0.0 - - 10 - - - -
02/10:30pm 23.7 SE 10 13 1016.2 - 0.0 - Partly cloudy 10 - - - -
02/10:00pm 23.8 SE 10 14 1016.0 - 0.0 - Partly cloudy 10 - - - -
02/09:30pm 23.9 SE 10 14 1015.8 - 0.0 - Partly cloudy 10 - - - -
02/09:00pm 24.0 SE 10 15 1015.8 - 0.0 - Partly cloudy 10 - - - -
02/08:30pm 24.0 SE 9 12 1015.6 - 0.0 - - 10 - - - -
02/08:00pm 24.2 ESE 11 15 1015.1 - 0.0 - - 10 - - - -
02/07:30pm 24.4 ESE 13 19 1014.8 - 0.0 - Partly cloudy 10 - - - -
02/07:00pm 24.6 ESE 13 19 1014.3 - 0.0 - Partly cloudy 10 - - - -
02/06:30pm 24.8 ESE 14 18 1014.0 - 0.0 - - 10 - - - -
02/06:00pm 25.3 ESE 15 22 1013.9 - 0.0 - - 10 - - - -
02/05:30pm 25.7 ESE 15 21 1013.7 - 0.0 - - 10 - - - -
02/05:00pm 26.2 ESE 16 23 1013.6 - 0.0 - - 10 - - - -
02/04:47pm 26.4 ESE 17 27 1013.6 - 0.0 - - 10 - - - -
02/04:30pm 26.5 ESE 19 25 1013.4 - 0.0 - - 10 - - - -
02/04:00pm 26.4 ESE 20 27 1013.1 - 0.0 - Partly cloudy 10 - - - -
02/03:30pm 26.9 ESE 16 21 1013.5 - 0.0 - Partly cloudy 10 - - - -
02/03:00pm 26.7 ESE 18 27 1013.9 - 0.0 - Cloudy 10 - - - -
02/02:30pm 25.8 ESE 18 27 1014.1 - 0.0 - Partly cloudy 10 - - - -
02/02:28pm 26.2 ESE 17 27 1014.2 - 0.0 - Partly cloudy 10 - - - -
02/02:00pm 26.3 ESE 18 26 1014.6 - 0.0 - Partly cloudy 10 - - - -
02/01:37pm 27.6 ESE 16 26 1014.6 - 0.0 - Partly cloudy 10 - - - -
02/01:30pm 27.0 ESE 18 26 1014.7 - 0.0 - Partly cloudy 10 - - - -
02/01:00pm 26.9 ESE 18 24 1015.0 - 0.0 - Partly cloudy 10 - - - -
02/12:30pm 26.4 ESE 16 22 1015.5 - 0.0 - Partly cloudy 10 - - - -
02/12:00pm 26.9 ESE 19 25 1015.8 - 0.0 - Cloudy 10 - - - -
02/11:30am 26.6 ESE 18 26 1015.9 - 0.0 - Partly cloudy 10 - - - -
02/11:00am 25.6 ESE 16 22 1016.0 - 0.0 - Partly cloudy 10 - - - -
02/10:30am 25.8 ESE 16 23 1016.4 - 0.0 - Partly cloudy 10 - - - -
02/10:00am 25.1 ESE 13 19 1016.4 - 0.0 - Partly cloudy 10 - - - -
02/09:30am 24.4 SE 13 18 1016.4 - 0.0 - Partly cloudy 10 - - - -
02/09:07am 23.3 SSE 10 14 1016.4 - 0.0 - Partly cloudy 10 - - - -
02/09:00am 23.2 SSE 10 14 1016.3 - 7.2 - Cloudy 7 - - - -
02/08:47am 23.2 SSE 11 16 1016.1 - 7.0 - Partly cloudy 5 - - - -
02/08:30am 23.3 SSE 10 14 1015.9 - 7.0 - Partly cloudy 10 - - - -
02/08:14am 23.2 SSE 8 11 1015.7 - 7.0 - Partly cloudy 10 - - - -
02/08:10am 23.2 SSE 9 13 1015.7 - 7.0 - Partly cloudy 10 - - - -
02/08:00am 23.2 SSE 9 12 1015.6 - 7.0 - Partly cloudy 10 - - - -
02/07:50am 23.3 SE 8 14 1015.4 - 7.0 - Partly cloudy 10 - - - -
02/07:49am 23.1 SE 9 14 1015.4 - 7.0 - Partly cloudy 10 - - - -
02/07:35am 22.7 SE 10 14 1015.4 - 7.0 - Partly cloudy 10 - - - -
02/07:30am 22.5 SE 10 14 1015.4 - 7.0 - Partly cloudy 10 - - - -
02/07:00am 22.5 SSE 9 13 1015.2 - 6.4 - Partly cloudy 4 - - - -
02/06:44am 22.7 SSE 9 17 1015.0 - 5.4 - Partly cloudy 5 - - - -
02/06:30am 22.8 SSE 9 12 1014.8 - 5.0 - Partly cloudy 10 - - - -
02/06:15am 22.8 SSE 9 14 1014.6 - 5.0 - Partly cloudy 10 - - - -
02/06:00am 22.8 SSE 9 14 1014.4 - 5.0 - Cloudy 10 - - - -
02/05:30am 22.7 SSE 10 14 1014.2 - 5.0 - Partly cloudy 10 - - - -
02/05:00am 22.6 SSE 10 14 1014.0 - 5.0 - Partly cloudy 10 - - - -
02/04:49am 22.6 SSE 9 14 1014.0 - 5.0 - Partly cloudy 10 - - - -
02/04:30am 22.6 SE 11 15 1014.2 - 5.0 - Partly cloudy 10 - - - -
02/04:04am 22.5 SE 11 19 1014.2 - 5.0 - Partly cloudy 10 - - - -
02/04:00am 22.5 SE 12 17 1014.2 - 5.0 - Partly cloudy 10 - - - -
02/03:30am 22.5 ESE 14 21 1014.2 - 3.8 - Partly cloudy 3 - - - -
02/03:09am 22.7 ESE 13 22 1014.2 - 3.0 - Partly cloudy 5 - - - -
02/03:06am 23.0 ESE 11 15 1014.2 - 3.0 - Partly cloudy 10 - - - -
02/03:00am 22.9 ESE 10 14 1014.2 - 3.0 - Cloudy 10 - - - -
02/02:57am 22.9 SE 10 14 1014.2 - 3.0 - Partly cloudy 10 - - - -
02/02:38am 22.9 ESE 15 23 1014.2 - 3.0 - Partly cloudy 10 - - - -
02/02:30am 22.9 ESE 14 19 1014.2 - 3.0 - Partly cloudy 8 - - - -
02/02:17am 23.2 ESE 9 13 1014.2 - 2.4 - Partly cloudy 5 - - - -
02/02:00am 23.2 SE 9 12 1014.2 - 0.4 - Partly cloudy 10 - - - -
02/01:45am 23.2 SE 10 15 1014.4 - 0.4 - Partly cloudy 9 - - - -
02/01:39am 23.3 SE 11 16 1014.4 - 0.4 - Partly cloudy 9 - - - -
02/01:30am 23.5 SE 10 15 1014.4 - 0.4 - Partly cloudy 5 - - - -
02/01:20am 23.9 SE 9 12 1014.4 - 0.0 - Partly cloudy 10 - - - -
02/01:00am 23.9 SE 10 14 1014.6 - 0.0 - Partly cloudy 10 - - - -
02/12:30am 24.0 ESE 11 17 1014.7 - 0.0 - Partly cloudy 10 - - - -
02/12:00am 24.3 SE 9 14 1014.9 - 0.0 - Cloudy 10 - - - -
 
Date/Time
EST
Temp

°C
Wind Pressure Rain
since 9am
mm
Weather Cloud Vis
km
Sea
Height
m
Swell
Dir
 
Speed
knots
Gust
knots
hPa Trend Height
m
Period
s
Dir
01/11:30pm 24.3 SE 10 15 1015.2 - 0.0 - Partly cloudy 10 - - - -
01/11:00pm 24.4 SE 8 12 1015.3 - 0.0 - Partly cloudy 10 - - - -
01/10:30pm 24.5 SE 8 11 1015.3 - 0.0 - Partly cloudy 10 - - - -
01/10:00pm 24.3 ESE 10 17 1015.3 - 0.0 - Partly cloudy 10 - - - -
01/09:30pm 24.2 SE 8 11 1015.0 - 0.0 - Partly cloudy 10 - - - -
01/09:00pm 24.3 ESE 9 12 1015.0 - 0.0 - - 10 - - - -
01/08:30pm 24.5 ESE 10 15 1014.8 - 0.0 - Partly cloudy 10 - - - -
01/08:00pm 24.5 ESE 11 15 1014.5 - 0.0 - Partly cloudy 10 - - - -
01/07:30pm 24.6 ESE 10 17 1014.1 - 0.0 - Partly cloudy 10 - - - -
01/07:00pm 24.7 SE 12 17 1013.7 - 0.0 - Partly cloudy 10 - - - -
01/06:30pm 24.9 SE 15 20 1013.3 - 0.0 - - 10 - - - -
01/06:00pm 25.3 ESE 15 19 1013.0 - 0.0 - Mostly clear 10 - - - -
01/05:30pm 25.7 SE 15 19 1012.7 - 0.0 - - 10 - - - -
01/05:00pm 26.4 ESE 15 19 1012.5 - 0.0 - Partly cloudy 10 - - - -
01/04:30pm 26.5 ESE 17 22 1012.4 - 0.0 - Partly cloudy 10 - - - -
01/04:00pm 26.8 ESE 14 21 1012.2 - 0.0 - - 10 - - - -
01/03:30pm 27.2 ESE 16 22 1012.2 - 0.0 - Partly cloudy 10 - - - -
01/03:00pm 27.4 ESE 17 24 1012.2 - 0.0 - Mostly clear 10 - - - -
01/02:30pm 27.4 ESE 18 25 1012.4 - 0.0 - - 10 - - - -
01/02:00pm 27.6 E 17 24 1012.7 - 0.0 - - 10 - - - -
01/01:30pm 27.5 ESE 19 25 1013.2 - 0.0 - - 10 - - - -
01/01:00pm 27.5 E 18 23 1013.7 - 0.0 - - 10 - - - -
01/12:30pm 27.5 ESE 17 23 1014.2 - 0.0 - - 10 - - - -
01/12:00pm 27.8 E 16 22 1014.7 - 0.0 - - 10 - - - -
01/11:30am 27.5 E 18 23 1014.9 - 0.0 - - 10 - - - -
01/11:00am 27.8 ESE 16 21 1015.2 - 0.0 - - 10 - - - -
01/10:30am 27.4 ESE 16 23 1015.3 - 0.0 - - 10 - - - -
01/10:00am 26.8 ESE 16 22 1015.3 - 0.0 - - 10 - - - -
01/09:30am 26.3 E 16 21 1015.4 - 0.0 - Partly cloudy 10 - - - -
01/09:00am 25.9 ESE 14 19 1015.2 - 0.0 - - 10 - - - -
01/08:30am 24.9 ESE 11 16 1014.7 - 0.0 - - 10 - - - -
01/08:00am 24.0 SE 8 12 1014.6 - 0.0 - - 10 - - - -
01/07:30am 22.9 SE 8 11 1014.3 - 0.0 - Partly cloudy 10 - - - -
01/07:00am 22.8 SE 6 9 1014.2 - 0.0 - Partly cloudy 10 - - - -
01/06:30am 22.9 SSE 7 9 1014.0 - 0.0 - Partly cloudy 10 - - - -
01/06:00am 22.9 SSE 6 8 1013.9 - 0.0 - Mostly clear 10 - - - -
01/05:30am 23.1 SSE 7 9 1013.7 - 0.0 - Partly cloudy 10 - - - -
01/05:00am 23.0 SSE 7 11 1013.4 - 0.0 - Partly cloudy 10 - - - -
01/04:30am 23.3 SSE 8 11 1013.4 - 0.0 - Partly cloudy 10 - - - -
01/04:00am 23.1 SE 7 11 1013.5 - 0.0 - - 10 - - - -
01/03:30am 23.2 SE 10 15 1013.5 - 0.0 - Partly cloudy 10 - - - -
01/03:00am 23.8 SE 11 17 1013.6 - 0.0 - Mostly cloudy 10 - - - -
01/02:30am 23.8 SE 14 17 1013.9 - 0.0 - Partly cloudy 10 - - - -
01/02:00am 23.7 ESE 14 20 1014.2 - 0.0 - - 10 - - - -
01/01:30am 24.2 ESE 14 19 1014.6 - 0.0 - Partly cloudy 10 - - - -
01/01:00am 24.0 ESE 13 18 1014.8 - 0.0 - - 10 - - - -
01/12:30am 24.1 ESE 15 21 1015.0 - 0.0 - - 10 - - - -
01/12:00am 24.1 ESE 13 22 1014.9 - 0.0 - Mostly clear 10 - - - -
 
Date/Time
EST
Temp

°C
Wind Pressure Rain
since 9am
mm
Weather Cloud Vis
km
Sea
Height
m
Swell
Dir
 
Speed
knots
Gust
knots
hPa Trend Height
m
Period
s
Dir
31/11:30pm 24.2 ESE 13 19 1015.1 - 0.0 - Partly cloudy 10 - - - -
31/11:00pm 24.3 ESE 14 18 1015.2 - 0.0 - Partly cloudy 10 - - - -
31/10:30pm 24.4 ESE 15 19 1014.9 - 0.0 - Partly cloudy 10 - - - -
31/10:00pm 24.4 ESE 13 17 1014.9 - 0.0 - Partly cloudy 10 - - - -
31/09:30pm 24.3 ESE 14 19 1015.0 - 0.0 - Partly cloudy 10 - - - -
31/09:00pm 24.3 SE 14 21 1014.7 - 0.0 - Mostly cloudy 10 - - - -
31/08:30pm 24.6 ESE 14 21 1014.6 - 0.0 - Partly cloudy 10 - - - -
31/08:00pm 24.3 ESE 13 20 1014.3 - 0.0 - Partly cloudy 10 - - - -
31/07:30pm 24.4 ESE 14 19 1013.8 - 0.0 - - 10 - - - -
31/07:00pm 24.4 ESE 16 20 1013.4 - 0.0 - - 10 - - - -
31/06:30pm 24.6 ESE 17 24 1013.2 - 0.0 - Partly cloudy 10 - - - -
31/06:00pm 24.9 ESE 17 24 1013.0 - 0.0 - - 10 - - - -
31/05:30pm 25.7 ESE 18 25 1012.8 - 0.0 - - 10 - - - -
31/05:00pm 26.2 ESE 19 26 1012.6 - 0.0 - Partly cloudy 10 - - - -
31/04:30pm 26.6 ESE 15 20 1012.4 - 0.0 - - 10 - - - -
31/04:00pm 26.7 ESE 18 25 1012.4 - 0.0 - Partly cloudy 10 - - - -
31/03:30pm 27.0 ESE 17 23 1012.8 - 0.0 - - 10 - - - -
31/03:00pm 28.1 ESE 16 25 1013.0 - 0.0 - Mostly clear 10 - - - -
31/02:30pm 27.1 ESE 18 25 1013.2 - 0.0 - - 10 - - - -
31/02:00pm 27.3 ESE 18 25 1013.5 - 0.0 - - 10 - - - -
31/01:30pm 27.3 ESE 19 25 1014.2 - 0.0 - Partly cloudy 10 - - - -
31/01:00pm 27.4 ESE 19 26 1014.6 - 0.0 - Partly cloudy 10 - - - -
31/12:30pm 27.1 ESE 18 24 1015.2 - 0.0 - Partly cloudy 10 - - - -
31/12:00pm 27.9 ESE 17 25 1015.4 - 0.0 - Mostly cloudy 10 - - - -
31/11:30am 27.6 ESE 18 25 1015.8 - 0.0 - Partly cloudy 10 - - - -
31/11:00am 27.7 SE 18 25 1016.0 - 0.0 - Partly cloudy 10 - - - -
31/10:30am 27.0 ESE 19 26 1016.2 - 0.0 - Partly cloudy 10 - - - -
31/10:00am 27.0 ESE 18 25 1016.4 - 0.0 - Partly cloudy 10 - - - -
31/09:30am 26.4 ESE 16 24 1016.4 - 0.0 - Partly cloudy 10 - - - -
31/09:00am 25.8 ESE 16 23 1016.3 - 0.0 - Partly cloudy 10 - - - -
31/08:30am 25.1 SE 15 22 1016.1 - 0.0 - Partly cloudy 10 - - - -
31/08:00am 24.6 ESE 14 19 1015.7 - 0.0 - Partly cloudy 10 - - - -
31/07:30am 24.3 ESE 13 19 1015.4 - 0.0 - Partly cloudy 10 - - - -
31/07:00am 24.0 ESE 15 19 1015.1 - 0.0 - - 10 - - - -
31/06:30am 24.0 ESE 15 22 1014.7 - 0.0 - - 10 - - - -
31/06:00am 24.0 ESE 15 21 1014.5 - 0.0 - Partly cloudy 10 - - - -
31/05:30am 24.0 ESE 16 21 1014.5 - 0.0 - Partly cloudy 10 - - - -
31/05:00am 24.1 ESE 16 22 1014.6 - 0.0 - Partly cloudy 10 - - - -
31/04:30am 24.3 SE 14 20 1014.7 - 0.0 - Partly cloudy 10 - - - -
31/04:00am 24.2 SE 15 20 1014.9 - 0.0 - Partly cloudy 10 - - - -
31/03:30am 24.4 SE 16 20 1014.9 - 0.0 - Partly cloudy 10 - - - -
31/03:00am 24.5 ESE 15 21 1015.1 - 0.0 - Cloudy 10 - - - -

Other Formats:

Comma delimited format used in spreadsheet applications
http://www.bom.gov.au/fwo/IDQ60701/IDQ60701.94174.axf

JavaScript Object Notation format (JSON) in row-major order
http://www.bom.gov.au/fwo/IDQ60701/IDQ60701.94174.json